Time;durP1;ratioP1;P1;durP2;ratioP2;P2;SDS_P1;SDS_P2;PMS_P1;PMS_P2;Temp;Humidity;BMP_temperature;BMP_pressure;BME280_temperature;BME280_humidity;BME280_pressure;Samples;Min_cycle;Max_cycle;Signal;HPM_P1;HPM_P2
2022/03/12 00:00:48;;;;;;;35.58;13.00;;;;;;;-2.88;45.94;100753.25;8438736;28;20043;-71
2022/03/12 00:04:49;;;;;;;40.83;13.10;;;;;;;-2.94;46.15;100754.78;8470226;27;20105;-71
2022/03/12 00:08:51;;;;;;;41.33;12.85;;;;;;;-2.94;46.20;100751.31;8449359;28;20495;-71
2022/03/12 00:12:53;;;;;;;40.95;13.52;;;;;;;-2.99;46.24;100747.41;8452788;28;20157;-72
2022/03/12 00:16:54;;;;;;;40.28;13.55;;;;;;;-3.03;46.38;100746.13;8447938;28;20051;-69
2022/03/12 00:20:57;;;;;;;38.42;11.90;;;;;;;-3.05;46.30;100742.03;8427407;28;20564;-70
2022/03/12 00:24:57;;;;;;;35.78;12.48;;;;;;;-3.04;46.42;100744.50;8436937;28;20240;-70
2022/03/12 00:28:59;;;;;;;38.92;12.43;;;;;;;-3.06;46.45;100735.91;8442394;28;20089;-71
2022/03/12 00:33:00;;;;;;;37.35;11.95;;;;;;;-3.09;46.38;100735.47;8460407;28;20165;-70
2022/03/12 00:37:01;;;;;;;40.20;11.70;;;;;;;-3.13;46.30;100729.72;8459175;28;20506;-70
2022/03/12 00:41:04;;;;;;;38.75;11.38;;;;;;;-3.10;46.34;100724.06;8441786;28;20136;-69
2022/03/12 00:45:05;;;;;;;43.15;12.20;;;;;;;-3.12;46.26;100726.06;8458797;28;20048;-72
2022/03/12 00:49:06;;;;;;;37.30;12.63;;;;;;;-3.18;47.05;100732.09;8411538;28;20048;-70
2022/03/12 00:53:07;;;;;;;40.95;12.45;;;;;;;-3.20;46.61;100727.97;8425911;28;20093;-70
2022/03/12 00:57:10;;;;;;;40.85;12.52;;;;;;;-3.23;47.05;100729.16;8428698;28;20040;-70
2022/03/12 01:01:12;;;;;;;37.40;12.00;;;;;;;-3.26;47.09;100724.22;8407598;28;20052;-70
2022/03/12 01:05:15;;;;;;;34.85;12.02;;;;;;;-3.30;47.01;100722.13;8450633;28;20055;-71
2022/03/12 01:09:16;;;;;;;46.20;13.85;;;;;;;-3.33;47.03;100720.66;8435278;28;20048;-69
2022/03/12 01:13:18;;;;;;;44.28;13.65;;;;;;;-3.36;47.60;100718.38;8448814;28;20047;-70
2022/03/12 01:17:19;;;;;;;38.53;12.70;;;;;;;-3.34;47.50;100724.31;8436208;28;20040;-69
2022/03/12 01:21:20;;;;;;;38.17;12.55;;;;;;;-3.42;47.73;100719.09;8461251;28;20123;-70
2022/03/12 01:25:21;;;;;;;44.15;13.23;;;;;;;-3.43;48.06;100723.53;8461450;28;20681;-70
2022/03/12 01:29:22;;;;;;;38.75;11.90;;;;;;;-3.44;48.12;100721.09;8444161;28;20142;-70
2022/03/12 01:33:23;;;;;;;41.00;13.23;;;;;;;-3.51;48.64;100726.28;8436581;28;20079;-70
2022/03/12 01:37:24;;;;;;;37.92;12.07;;;;;;;-3.54;48.68;100721.34;8433930;28;20047;-70
2022/03/12 01:41:29;;;;;;;46.17;13.52;;;;;;;-3.55;48.89;100713.59;8444578;28;20044;-70
2022/03/12 01:45:31;;;;;;;37.47;12.40;;;;;;;-3.57;48.85;100715.59;8432850;28;20090;-71
2022/03/12 01:49:32;;;;;;;38.05;11.45;;;;;;;-3.62;49.03;100712.66;8432614;28;20089;-70
2022/03/12 01:53:34;;;;;;;44.30;13.27;;;;;;;-3.63;49.08;100717.13;8431542;28;20048;-70
2022/03/12 01:57:35;;;;;;;38.63;12.57;;;;;;;-3.63;48.93;100711.03;8431311;28;20157;-71
2022/03/12 02:01:35;;;;;;;47.50;13.57;;;;;;;-3.67;49.27;100704.47;8431281;28;20040;-69
2022/03/12 02:05:37;;;;;;;49.72;14.43;;;;;;;-3.72;49.57;100702.34;8456485;28;20043;-70
2022/03/12 02:09:39;;;;;;;36.22;12.05;;;;;;;-3.73;49.69;100710.44;8444179;28;20048;-69
2022/03/12 02:13:40;;;;;;;41.00;13.43;;;;;;;-3.75;49.81;100696.63;8462944;27;20044;-71
2022/03/12 02:17:41;;;;;;;47.20;14.25;;;;;;;-3.73;50.07;100694.59;8466609;27;20523;-71
2022/03/12 02:21:51;;;;;;;46.45;13.55;;;;;;;-3.79;50.30;100690.03;8461040;28;20051;-71
2022/03/12 02:25:52;;;;;;;41.40;13.95;;;;;;;-3.77;50.02;100682.75;8430057;28;20117;-71
2022/03/12 02:29:53;;;;;;;42.88;13.60;;;;;;;-3.75;49.94;100680.78;8433954;28;20414;-71
2022/03/12 02:34:00;;;;;;;42.08;14.73;;;;;;;-3.75;50.00;100680.78;8463980;28;20050;-71
2022/03/12 02:38:03;;;;;;;46.97;14.63;;;;;;;-3.85;50.23;100681.81;8460567;28;20052;-69
2022/03/12 02:42:09;;;;;;;48.88;14.38;;;;;;;-3.81;49.85;100681.47;8462267;27;20044;-69
2022/03/12 02:46:13;;;;;;;49.55;13.45;;;;;;;-3.81;49.66;100682.31;8410698;28;20044;-71
2022/03/12 02:50:14;;;;;;;48.03;15.23;;;;;;;-3.87;49.78;100693.56;8462262;27;20256;-70
2022/03/12 02:54:16;;;;;;;45.72;12.63;;;;;;;-3.86;50.17;100685.44;8450430;28;20048;-70
2022/03/12 02:58:17;;;;;;;46.88;13.57;;;;;;;-3.90;50.02;100689.44;8462541;27;20465;-70
2022/03/12 03:02:28;;;;;;;37.80;12.50;;;;;;;-3.91;50.28;100682.53;8477149;27;20486;-70
2022/03/12 03:06:29;;;;;;;45.95;14.45;;;;;;;-3.92;50.32;100680.91;8446856;28;20048;-70
2022/03/12 03:10:35;;;;;;;47.10;14.55;;;;;;;-3.95;50.32;100675.97;8429422;28;20055;-69
2022/03/12 03:14:41;;;;;;;46.42;14.82;;;;;;;-3.90;50.30;100678.88;8444806;28;20104;-70
2022/03/12 03:18:50;;;;;;;46.13;13.85;;;;;;;-3.93;50.27;100667.88;8442312;28;20052;-70
2022/03/12 03:22:51;;;;;;;41.35;13.20;;;;;;;-3.91;50.49;100666.69;8445314;28;20059;-70
2022/03/12 03:26:57;;;;;;;37.20;12.48;;;;;;;-3.90;50.34;100668.34;8461542;28;20054;-69
2022/03/12 03:30:58;;;;;;;52.20;15.30;;;;;;;-3.93;50.49;100667.88;8454256;27;20096;-70
2022/03/12 03:34:59;;;;;;;47.53;13.15;;;;;;;-3.94;50.66;100676.78;8430757;27;20412;-70
2022/03/12 03:39:00;;;;;;;43.03;14.40;;;;;;;-3.99;50.87;100664.13;8441683;28;20055;-70
2022/03/12 03:43:01;;;;;;;42.30;13.68;;;;;;;-4.02;51.02;100669.72;8432610;28;20492;-70
2022/03/12 03:47:02;;;;;;;43.70;13.95;;;;;;;-4.04;51.04;100666.47;8468225;27;20036;-70
2022/03/12 03:51:04;;;;;;;41.47;13.88;;;;;;;-3.99;51.56;100664.13;8436453;28;20047;-69
2022/03/12 03:55:06;;;;;;;47.75;14.07;;;;;;;-4.03;51.17;100662.84;8459593;28;20404;-71
2022/03/12 03:59:07;;;;;;;48.63;14.00;;;;;;;-4.04;51.45;100655.91;8434945;28;20070;-70
2022/03/12 04:03:10;;;;;;;40.63;12.77;;;;;;;-4.00;51.59;100662.47;8447684;28;20055;-69
2022/03/12 04:07:12;;;;;;;42.17;13.00;;;;;;;-4.07;51.44;100656.25;8427485;28;20085;-70
2022/03/12 04:11:15;;;;;;;40.47;13.57;;;;;;;-4.10;51.53;100651.34;8441486;28;20052;-69
2022/03/12 04:15:17;;;;;;;45.90;13.98;;;;;;;-4.06;51.17;100652.63;8454562;28;20496;-69
2022/03/12 04:19:18;;;;;;;44.15;13.38;;;;;;;-4.03;51.23;100652.28;8458297;28;20550;-70
2022/03/12 04:23:24;;;;;;;51.10;13.95;;;;;;;-4.07;51.75;100650.97;8449523;28;20051;-69
2022/03/12 04:27:25;;;;;;;44.47;12.70;;;;;;;-4.10;52.02;100646.06;8436144;28;20047;-72
2022/03/12 04:31:26;;;;;;;42.30;14.23;;;;;;;-4.04;51.61;100650.63;8451803;28;20040;-69
2022/03/12 04:35:28;;;;;;;51.60;14.90;;;;;;;-4.03;51.53;100652.28;8448320;28;20135;-69
2022/03/12 04:39:30;;;;;;;41.95;13.60;;;;;;;-4.04;51.44;100650.63;8434053;28;20380;-70
2022/03/12 04:43:31;;;;;;;45.75;12.43;;;;;;;-4.07;52.00;100645.69;8457413;28;20051;-70
2022/03/12 04:47:32;;;;;;;44.15;13.77;;;;;;;-4.08;51.88;100649.34;8463163;28;20039;-70
2022/03/12 04:51:33;;;;;;;40.83;14.15;;;;;;;-4.08;51.74;100649.34;8462484;28;20055;-71
2022/03/12 04:55:36;;;;;;;45.83;13.15;;;;;;;-4.07;52.10;100645.69;8418792;28;20054;-71
2022/03/12 04:59:37;;;;;;;40.92;14.20;;;;;;;-4.06;52.05;100646.53;8459378;28;20062;-70
2022/03/12 05:03:38;;;;;;;44.83;13.75;;;;;;;-4.08;52.08;100646.72;8478614;27;20411;-70
2022/03/12 05:07:44;;;;;;;47.70;13.23;;;;;;;-4.15;52.48;100643.13;8466590;28;20058;-70
2022/03/12 05:11:45;;;;;;;61.00;17.50;;;;;;;-4.10;52.57;100643.44;8466637;28;20124;-68
2022/03/12 05:15:47;;;;;;;45.53;14.82;;;;;;;-4.10;52.78;100646.06;8466485;28;20040;-69
2022/03/12 05:19:48;;;;;;;57.08;17.77;;;;;;;-4.17;52.83;100654.84;8465500;28;20570;-70
2022/03/12 05:23:49;;;;;;;46.65;15.30;;;;;;;-4.20;53.20;100655.22;8466780;27;20100;-70
2022/03/12 05:27:51;;;;;;;52.92;17.60;;;;;;;-4.16;53.26;100646.75;8500553;27;20510;-68
2022/03/12 05:31:53;;;;;;;58.88;19.70;;;;;;;-4.15;53.17;100648.41;8455022;28;20055;-69
2022/03/12 05:35:54;;;;;;;42.90;15.57;;;;;;;-4.20;53.68;100644.66;8466013;28;20043;-69
2022/03/12 05:39:55;;;;;;;53.80;15.43;;;;;;;-4.21;53.52;100638.56;8469393;27;20126;-70
2022/03/12 05:43:56;;;;;;;45.60;14.63;;;;;;;-4.22;53.64;100642.19;8500373;27;20051;-69
2022/03/12 05:47:58;;;;;;;48.88;15.32;;;;;;;-4.21;53.74;100649.09;8500806;27;20047;-69
2022/03/12 05:51:59;;;;;;;49.33;16.35;;;;;;;-4.21;54.00;100649.09;8491854;27;20419;-70
2022/03/12 05:55:59;;;;;;;51.58;16.67;;;;;;;-4.19;53.89;100652.41;8476123;27;20092;-69
2022/03/12 06:00:02;;;;;;;54.60;16.98;;;;;;;-4.13;53.91;100641.16;8479917;27;20043;-70
2022/03/12 06:04:03;;;;;;;67.82;17.20;;;;;;;-4.07;53.74;100650.97;8499032;27;20160;-69
2022/03/12 06:08:04;;;;;;;48.47;15.63;;;;;;;-4.03;53.52;100647.00;8498740;27;20050;-70
2022/03/12 06:12:07;;;;;;;48.67;14.98;;;;;;;-3.96;53.66;100642.66;8471136;27;20052;-69
2022/03/12 06:16:08;;;;;;;50.42;17.77;;;;;;;-3.90;53.48;100641.13;8481119;27;20579;-67
2022/03/12 06:20:10;;;;;;;57.78;18.40;;;;;;;-3.81;53.05;100649.81;8498921;27;20130;-69
2022/03/12 06:24:12;;;;;;;52.72;18.55;;;;;;;-3.68;52.65;100644.72;8498511;27;20135;-69
2022/03/12 06:28:13;;;;;;;61.28;22.00;;;;;;;-3.64;52.39;100641.53;8479212;27;20127;-70
2022/03/12 06:32:15;;;;;;;78.25;29.25;;;;;;;-3.56;52.14;100645.94;8494580;27;20075;-68
2022/03/12 06:36:16;;;;;;;73.20;27.45;;;;;;;-3.50;51.67;100653.16;8461482;27;20043;-68
2022/03/12 06:40:19;;;;;;;71.00;21.67;;;;;;;-3.42;51.84;100650.41;8488517;27;20055;-70
2022/03/12 06:44:24;;;;;;;85.22;27.75;;;;;;;-3.32;51.30;100650.97;8463800;28;20418;-70
2022/03/12 06:48:26;;;;;;;55.90;18.45;;;;;;;-3.23;51.40;100644.63;8462459;28;20047;-68
2022/03/12 06:52:28;;;;;;;48.25;16.13;;;;;;;-3.12;50.58;100646.78;8455797;27;20047;-68
2022/03/12 06:56:29;;;;;;;42.00;14.77;;;;;;;-2.99;50.15;100649.63;8480816;27;20474;-69
2022/03/12 07:00:31;;;;;;;50.72;16.77;;;;;;;-2.90;49.86;100654.78;8468859;27;20081;-69
2022/03/12 07:04:32;;;;;;;57.05;17.92;;;;;;;-2.83;49.59;100650.41;8463131;28;20054;-69
2022/03/12 07:08:34;;;;;;;56.78;17.85;;;;;;;-2.68;49.20;100648.56;8450821;27;20070;-72
2022/03/12 07:12:36;;;;;;;58.53;18.50;;;;;;;-2.57;49.34;100650.75;8485398;27;20048;-69
2022/03/12 07:16:37;;;;;;;57.50;18.77;;;;;;;-2.46;48.95;100660.03;8463069;28;20438;-69
2022/03/12 07:20:38;;;;;;;61.70;19.00;;;;;;;-2.34;48.47;100651.41;8462576;28;20109;-69
2022/03/12 07:24:40;;;;;;;52.53;18.02;;;;;;;-2.27;48.53;100652.28;8472066;27;20047;-72
2022/03/12 07:28:41;;;;;;;56.45;18.55;;;;;;;-2.15;48.49;100655.25;8496931;27;20051;-69
2022/03/12 07:32:43;;;;;;;56.60;18.27;;;;;;;-2.08;48.34;100650.03;8496021;27;20115;-70
2022/03/12 07:36:45;;;;;;;55.05;18.25;;;;;;;-1.95;48.38;100650.16;8473221;27;20142;-70
2022/03/12 07:40:46;;;;;;;54.55;18.73;;;;;;;-1.88;47.80;100661.63;8461954;28;20601;-70
2022/03/12 07:44:47;;;;;;;48.97;17.60;;;;;;;-1.66;47.78;100649.19;8459769;27;20513;-73
2022/03/12 07:48:48;;;;;;;53.53;17.75;;;;;;;-1.55;47.43;100657.44;8459276;27;20039;-71
2022/03/12 07:52:50;;;;;;;62.10;18.33;;;;;;;-1.43;46.98;100661.19;8452987;27;20511;-72
2022/03/12 07:56:51;;;;;;;61.20;18.10;;;;;;;-1.31;46.65;100649.03;8437350;28;20044;-72
2022/03/12 08:00:58;;;;;;;51.30;18.17;;;;;;;-1.11;46.78;100637.75;8431319;28;20056;-72
2022/03/12 08:04:59;;;;;;;46.90;17.55;;;;;;;-0.92;46.03;100637.03;8437059;28;20054;-68
2022/03/12 08:09:00;;;;;;;66.45;19.98;;;;;;;-0.86;45.21;100641.56;8428061;28;20097;-71
2022/03/12 08:13:03;;;;;;;63.15;20.75;;;;;;;-0.72;45.34;100637.94;8444452;28;20492;-72
2022/03/12 08:17:05;;;;;;;54.75;17.10;;;;;;;-0.55;45.67;100633.94;8425367;28;20139;-70
2022/03/12 08:21:06;;;;;;;82.93;24.20;;;;;;;-0.49;45.38;100638.44;8449408;28;20082;-72
2022/03/12 08:25:08;;;;;;;71.15;22.30;;;;;;;-0.30;45.36;100625.41;8460789;28;20047;-73
2022/03/12 08:29:10;;;;;;;53.17;18.17;;;;;;;-0.14;44.66;100640.97;8444709;28;20135;-73
2022/03/12 08:33:11;;;;;;;103.68;26.95;;;;;;;-0.05;44.51;100624.63;8427795;28;20058;-72
2022/03/12 08:37:12;;;;;;;55.38;17.88;;;;;;;0.10;43.99;100632.44;8426625;28;20063;-73
2022/03/12 08:41:15;;;;;;;51.50;18.42;;;;;;;0.26;43.88;100634.69;8428529;28;20585;-73
2022/03/12 08:45:17;;;;;;;75.55;23.13;;;;;;;0.42;43.34;100636.91;8456581;28;20109;-72
2022/03/12 08:49:18;;;;;;;95.03;28.10;;;;;;;0.56;43.31;100637.72;8426997;28;20056;-72
2022/03/12 08:53:21;;;;;;;52.30;19.08;;;;;;;0.75;43.02;100633.41;8453488;28;20050;-73
2022/03/12 08:57:22;;;;;;;68.38;24.55;;;;;;;0.90;42.55;100633.97;8460621;28;20059;-73
2022/03/12 09:01:23;;;;;;;52.90;18.48;;;;;;;1.00;42.93;100626.41;8441710;28;20150;-72
2022/03/12 09:05:25;;;;;;;52.53;18.40;;;;;;;1.15;42.35;100626.16;8460316;28;20054;-73
2022/03/12 09:09:26;;;;;;;51.40;18.77;;;;;;;1.38;41.87;100625.63;8462997;28;20383;-73
2022/03/12 09:13:27;;;;;;;48.03;17.65;;;;;;;1.55;42.01;100627.59;8460172;28;20051;-72
2022/03/12 09:17:28;;;;;;;48.35;16.88;;;;;;;1.64;41.28;100620.16;8456896;28;20051;-72
2022/03/12 09:21:29;;;;;;;60.08;19.23;;;;;;;1.85;41.41;100619.03;8424986;28;20040;-73
2022/03/12 09:25:30;;;;;;;57.47;18.88;;;;;;;1.93;40.81;100614.25;8463538;28;20051;-72
2022/03/12 09:29:32;;;;;;;55.97;18.20;;;;;;;2.04;41.35;100626.91;8465987;28;20140;-73
2022/03/12 09:33:34;;;;;;;56.30;17.52;;;;;;;2.21;40.51;100615.69;8466017;28;20476;-74
2022/03/12 09:37:38;;;;;;;49.83;18.85;;;;;;;2.36;40.54;100613.53;8440230;28;20492;-74
2022/03/12 09:41:40;;;;;;;54.28;18.25;;;;;;;2.50;40.01;100621.19;8449251;28;20052;-73
2022/03/12 09:45:41;;;;;;;48.40;17.90;;;;;;;2.63;40.31;100614.91;8446336;28;20055;-73
2022/03/12 09:49:42;;;;;;;51.55;18.77;;;;;;;2.68;39.58;100616.91;8436685;28;20108;-72
2022/03/12 09:53:44;;;;;;;45.90;17.88;;;;;;;2.94;38.76;100612.13;8459473;28;20098;-72
2022/03/12 09:57:46;;;;;;;46.30;17.25;;;;;;;3.04;38.15;100605.44;8448673;28;20367;-72
2022/03/12 10:01:47;;;;;;;48.60;16.73;;;;;;;3.26;37.98;100603.97;8431431;28;20068;-72
2022/03/12 10:05:48;;;;;;;49.13;17.10;;;;;;;3.47;37.88;100606.16;8440564;28;20087;-72
2022/03/12 10:09:49;;;;;;;47.20;17.25;;;;;;;3.56;37.34;100588.75;8431226;28;20086;-72
2022/03/12 10:13:50;;;;;;;43.78;15.95;;;;;;;3.65;36.95;100591.91;8445823;28;20112;-73
2022/03/12 10:17:52;;;;;;;44.55;15.60;;;;;;;3.84;37.38;100590.84;8419079;28;20050;-72
2022/03/12 10:21:54;;;;;;;47.65;16.95;;;;;;;4.00;36.92;100594.69;8430658;28;20044;-72
2022/03/12 10:25:55;;;;;;;46.80;16.85;;;;;;;4.12;36.84;100598.22;8469898;27;20074;-74
2022/03/12 10:29:56;;;;;;;44.50;16.88;;;;;;;4.21;36.25;100597.66;8475904;27;20055;-72
2022/03/12 10:34:24;;;;;;;47.67;18.05;;;;;;;4.31;36.97;100590.91;8464336;27;20404;-72
2022/03/12 10:38:25;;;;;;;42.60;17.27;;;;;;;4.47;36.32;100591.03;8443102;27;20043;-72
2022/03/12 10:42:26;;;;;;;43.65;17.83;;;;;;;4.63;36.39;100606.41;8493571;27;20039;-73
2022/03/12 10:46:29;;;;;;;55.05;18.30;;;;;;;4.79;35.89;100580.78;8464174;28;20054;-72
2022/03/12 10:50:35;;;;;;;49.28;16.92;;;;;;;4.90;35.82;100579.13;8468207;27;20107;-72
2022/03/12 10:54:38;;;;;;;48.95;19.02;;;;;;;4.98;35.47;100581.44;8468139;27;20043;-73
2022/03/12 10:58:39;;;;;;;46.25;18.83;;;;;;;5.15;35.43;100576.97;8463975;28;20472;-72
2022/03/12 11:02:40;;;;;;;39.70;15.20;;;;;;;5.32;33.98;100572.50;8497324;27;20067;-73
2022/03/12 11:06:43;;;;;;;37.85;15.25;;;;;;;5.53;33.88;100579.88;8406415;27;20052;-73
2022/03/12 11:10:50;;;;;;;59.50;20.35;;;;;;;5.82;33.49;100577.16;8470763;27;20445;-72
2022/03/12 11:15:15;;;;;;;49.75;19.45;;;;;;;5.83;32.49;100562.69;8442025;27;20056;-73
2022/03/12 11:19:37;;;;;;;48.10;17.52;;;;;;;5.80;32.26;100555.97;8460842;28;20495;-72
2022/03/12 11:23:42;;;;;;;40.95;17.55;;;;;;;5.91;32.71;100549.75;8436188;28;20070;-73
2022/03/12 11:27:43;;;;;;;45.13;17.08;;;;;;;6.25;32.07;100539.81;8435351;28;20034;-73
2022/03/12 11:31:58;;;;;;;36.42;14.15;;;;;;;6.40;31.92;100530.41;8431970;28;20047;-72
2022/03/12 11:36:01;;;;;;;35.72;15.52;;;;;;;6.56;31.10;100534.91;8431002;28;20044;-73
2022/03/12 11:40:05;;;;;;;38.17;15.20;;;;;;;6.69;32.01;100518.44;8430054;28;20079;-72
2022/03/12 11:44:08;;;;;;;47.47;16.45;;;;;;;6.81;30.74;100511.09;8431111;28;20040;-72
2022/03/12 11:48:10;;;;;;;37.80;14.27;;;;;;;6.97;30.16;100515.59;8436162;28;20040;-72
2022/03/12 11:52:11;;;;;;;37.38;12.75;;;;;;;7.02;29.37;100515.66;8460959;28;20075;-73
2022/03/12 11:56:14;;;;;;;40.83;17.70;;;;;;;7.19;29.68;100502.91;8440807;28;20046;-73
2022/03/12 12:00:24;;;;;;;39.47;18.48;;;;;;;7.34;28.38;100514.91;8437560;28;20464;-73
2022/03/12 12:04:26;;;;;;;34.00;15.65;;;;;;;7.43;26.97;100497.25;8440537;28;20132;-74
2022/03/12 12:08:27;;;;;;;32.53;13.23;;;;;;;7.61;27.08;100499.59;8431284;28;20079;-74
2022/03/12 12:12:32;;;;;;;34.50;13.75;;;;;;;7.78;27.60;100500.25;8428035;28;20393;-74
2022/03/12 12:16:34;;;;;;;35.55;14.68;;;;;;;7.95;26.60;100498.25;8460086;27;20078;-74
2022/03/12 12:20:36;;;;;;;28.33;11.30;;;;;;;7.99;26.08;100506.63;8451798;27;20047;-73
2022/03/12 12:24:42;;;;;;;24.58;10.07;;;;;;;8.00;25.65;100500.16;8462899;27;20054;-74
2022/03/12 12:28:51;;;;;;;40.75;15.80;;;;;;;7.88;25.82;100494.97;8432922;28;20044;-73
2022/03/12 12:32:52;;;;;;;23.92;9.65;;;;;;;8.13;25.52;100490.84;8448173;27;20158;-74
2022/03/12 12:36:59;;;;;;;25.15;10.35;;;;;;;8.24;25.28;100476.41;8485336;27;20123;-73
2022/03/12 12:41:03;;;;;;;27.15;11.77;;;;;;;8.39;25.27;100468.44;8463048;27;20419;-72
2022/03/12 12:45:10;;;;;;;17.67;7.30;;;;;;;8.45;25.13;100472.78;8447677;27;20142;-74
2022/03/12 12:49:40;;;;;;;16.60;6.28;;;;;;;8.70;25.30;100464.81;8407531;28;20118;-73
2022/03/12 12:53:42;;;;;;;13.60;6.50;;;;;;;8.65;24.30;100467.50;8398743;28;20429;-73
2022/03/12 12:57:50;;;;;;;10.38;5.70;;;;;;;8.63;24.56;100458.84;8405359;28;20048;-75
2022/03/12 13:01:52;;;;;;;15.43;6.13;;;;;;;8.70;24.00;100454.03;8403192;28;20045;-75
2022/03/12 13:05:56;;;;;;;12.23;4.82;;;;;;;8.72;23.68;100446.53;8398716;28;20043;-75
2022/03/12 13:09:59;;;;;;;20.58;7.82;;;;;;;8.77;23.32;100454.63;8408962;28;20049;-73
2022/03/12 13:14:03;;;;;;;15.77;5.70;;;;;;;8.88;23.65;100450.88;8409261;28;20522;-74
2022/03/12 13:18:17;;;;;;;13.23;4.30;;;;;;;8.98;23.14;100449.31;8414613;28;20054;-74
2022/03/12 13:22:20;;;;;;;10.10;5.03;;;;;;;9.01;23.67;100437.97;8452696;27;20048;-75
2022/03/12 13:26:26;;;;;;;14.25;4.70;;;;;;;9.51;23.14;100440.75;8463634;27;20046;-72
2022/03/12 13:30:30;;;;;;;13.77;5.20;;;;;;;10.56;21.82;100422.78;8489072;27;20138;-74
2022/03/12 13:34:35;;;;;;;11.90;5.82;;;;;;;11.74;20.82;100426.38;8479153;27;20101;-74
2022/03/12 13:38:36;;;;;;;28.13;11.07;;;;;;;13.08;19.86;100427.00;8460301;27;20047;-75
2022/03/12 13:42:39;;;;;;;13.43;6.95;;;;;;;14.18;19.40;100419.22;8445253;27;20517;-71
2022/03/12 13:46:40;;;;;;;11.20;5.45;;;;;;;14.59;18.62;100409.19;8470318;27;20092;-72
2022/03/12 13:50:41;;;;;;;13.85;5.70;;;;;;;14.05;18.14;100414.59;8465422;27;20055;-73
2022/03/12 13:54:42;;;;;;;13.20;6.00;;;;;;;15.34;18.53;100419.50;8468127;27;20040;-73
2022/03/12 13:58:44;;;;;;;15.80;6.32;;;;;;;15.21;17.86;100420.38;8431124;28;20048;-73
2022/03/12 14:02:56;;;;;;;24.02;9.60;;;;;;;15.27;17.89;100413.69;8433457;28;20131;-71
2022/03/12 14:06:58;;;;;;;27.23;9.43;;;;;;;15.49;17.65;100416.41;8475134;27;20555;-72
2022/03/12 14:10:59;;;;;;;10.30;5.95;;;;;;;15.47;16.97;100413.22;8446730;28;20518;-72
2022/03/12 14:15:03;;;;;;;10.82;5.88;;;;;;;16.13;16.90;100418.91;8419193;28;20078;-72
2022/03/12 14:19:05;;;;;;;15.68;5.00;;;;;;;17.04;16.25;100422.56;8459295;28;20043;-73
2022/03/12 14:23:07;;;;;;;10.70;4.68;;;;;;;17.10;15.64;100415.84;8427849;28;20048;-73
2022/03/12 14:27:11;;;;;;;10.70;4.97;;;;;;;16.05;16.08;100417.75;8440187;27;20040;-74
2022/03/12 14:31:12;;;;;;;10.60;5.07;;;;;;;16.38;16.35;100405.41;8457810;28;20044;-74
2022/03/12 14:35:15;;;;;;;11.05;4.90;;;;;;;17.43;15.25;100412.63;8492055;27;20043;-73
2022/03/12 14:39:16;;;;;;;10.50;5.45;;;;;;;16.76;16.19;100404.91;8459729;28;20044;-71
2022/03/12 14:43:19;;;;;;;14.40;5.88;;;;;;;16.28;16.06;100405.69;8460270;28;20506;-71
2022/03/12 14:47:21;;;;;;;16.13;8.00;;;;;;;17.11;15.65;100395.63;8435204;28;20131;-72
2022/03/12 14:51:22;;;;;;;13.43;6.50;;;;;;;16.78;16.03;100402.63;8454680;28;20104;-71
2022/03/12 14:55:24;;;;;;;28.10;13.60;;;;;;;17.67;14.95;100402.00;8438180;28;20413;-73
2022/03/12 14:59:28;;;;;;;16.98;9.35;;;;;;;17.62;14.97;100404.91;8457874;27;20081;-79
2022/03/12 15:03:30;;;;;;;13.40;6.63;;;;;;;17.07;15.06;100400.13;8442532;28;20044;-72
2022/03/12 15:07:31;;;;;;;29.88;11.32;;;;;;;16.22;15.95;100390.59;8452852;28;20197;-72
2022/03/12 15:11:35;;;;;;;28.95;10.95;;;;;;;16.35;15.50;100395.13;8453648;28;20056;-75
2022/03/12 15:15:40;;;;;;;20.55;9.60;;;;;;;15.29;16.16;100383.44;8459070;28;20043;-74
2022/03/12 15:19:41;;;;;;;13.65;7.45;;;;;;;15.16;16.64;100379.66;8434125;28;20052;-75
2022/03/12 15:23:44;;;;;;;21.98;10.63;;;;;;;15.88;16.19;100380.31;8441246;28;20500;-75
2022/03/12 15:27:54;;;;;;;18.55;6.90;;;;;;;14.74;17.01;100378.97;8437712;28;20040;-75
2022/03/12 15:31:56;;;;;;;15.63;8.57;;;;;;;13.65;17.81;100378.09;8459452;27;20040;-74
2022/03/12 15:36:25;;;;;;;10.65;5.22;;;;;;;11.71;19.13;100378.19;8470400;27;20055;-74
2022/03/12 15:40:26;;;;;;;13.95;6.45;;;;;;;10.71;19.94;100385.97;8467966;27;20043;-75
2022/03/12 15:44:27;;;;;;;14.20;5.47;;;;;;;10.51;20.57;100376.91;8483243;27;20438;-75
2022/03/12 15:48:29;;;;;;;18.17;6.78;;;;;;;9.16;21.85;100378.72;8460427;28;20039;-74
2022/03/12 15:52:30;;;;;;;15.27;6.65;;;;;;;8.75;22.17;100386.72;8461239;28;20479;-75
2022/03/12 15:56:31;;;;;;;15.32;7.07;;;;;;;8.42;22.86;100387.16;8461244;28;20036;-74
2022/03/12 16:00:33;;;;;;;15.95;7.07;;;;;;;8.14;23.44;100384.84;8442983;28;20051;-73
2022/03/12 16:04:34;;;;;;;17.60;8.00;;;;;;;7.91;23.98;100381.50;8459679;28;20043;-73
2022/03/12 16:08:35;;;;;;;18.85;8.07;;;;;;;7.72;24.47;100382.19;8458003;28;20077;-74
2022/03/12 16:12:38;;;;;;;19.73;7.68;;;;;;;7.60;24.88;100385.06;8458178;28;20044;-73
2022/03/12 16:16:39;;;;;;;17.83;8.13;;;;;;;7.33;25.65;100389.66;8435029;28;20060;-73
2022/03/12 16:20:41;;;;;;;29.50;9.40;;;;;;;7.25;25.88;100382.06;8426672;28;20078;-73
2022/03/12 16:24:42;;;;;;;25.98;10.27;;;;;;;6.92;26.50;100389.31;8426684;28;20079;-72
2022/03/12 16:28:45;;;;;;;31.00;13.35;;;;;;;6.91;26.56;100386.88;8430231;28;20048;-75
2022/03/12 16:32:47;;;;;;;49.63;19.02;;;;;;;6.75;26.88;100383.22;8456794;27;20442;-74
2022/03/12 16:36:49;;;;;;;94.85;32.00;;;;;;;6.60;27.30;100380.38;8492617;27;20072;-76
2022/03/12 16:40:50;;;;;;;42.50;18.95;;;;;;;6.38;28.00;100371.50;8488845;27;20040;-74
2022/03/12 16:44:52;;;;;;;55.08;22.38;;;;;;;6.16;28.37;100379.56;8474513;27;20050;-73
2022/03/12 16:48:54;;;;;;;38.90;15.75;;;;;;;5.94;28.76;100376.84;8431775;28;20490;-74
2022/03/12 16:52:55;;;;;;;59.50;24.58;;;;;;;5.65;29.35;100376.16;8460571;28;20035;-74
2022/03/12 16:56:56;;;;;;;27.38;11.05;;;;;;;5.55;29.58;100388.56;8452457;28;20127;-72
2022/03/12 17:00:59;;;;;;;25.63;10.70;;;;;;;5.45;29.92;100384.66;8426410;28;20082;-74
2022/03/12 17:05:01;;;;;;;42.50;18.50;;;;;;;5.24;30.26;100388.06;8442842;28;20507;-73
2022/03/12 17:09:02;;;;;;;37.03;16.70;;;;;;;5.03;30.75;100391.44;8475035;28;20039;-74
2022/03/12 17:13:04;;;;;;;45.83;15.73;;;;;;;4.85;31.48;100389.00;8440256;28;20497;-73
2022/03/12 17:17:04;;;;;;;43.38;16.83;;;;;;;4.60;31.67;100387.44;8445184;28;20082;-73
2022/03/12 17:21:06;;;;;;;47.85;17.45;;;;;;;4.43;32.17;100397.28;8429896;28;20052;-72
2022/03/12 17:25:08;;;;;;;64.75;23.55;;;;;;;4.30;32.65;100392.19;8424788;28;20052;-72
2022/03/12 17:29:11;;;;;;;74.95;26.38;;;;;;;4.18;33.05;100389.53;8424075;28;20414;-73
2022/03/12 17:33:12;;;;;;;89.07;31.77;;;;;;;4.03;33.35;100391.06;8446551;28;20047;-72
2022/03/12 17:37:16;;;;;;;97.63;32.90;;;;;;;3.89;33.89;100390.53;8388282;28;20496;-74
2022/03/12 17:41:18;;;;;;;96.55;32.85;;;;;;;3.82;34.24;100387.97;8443204;28;20044;-71
2022/03/12 17:45:20;;;;;;;82.07;29.10;;;;;;;3.71;34.52;100393.31;8465465;27;20052;-73
2022/03/12 17:49:22;;;;;;;77.53;28.80;;;;;;;3.58;34.49;100394.38;8470129;27;20047;-73
2022/03/12 17:53:24;;;;;;;75.63;25.55;;;;;;;3.43;34.75;100396.69;8462789;28;20496;-72
2022/03/12 17:57:27;;;;;;;82.40;27.80;;;;;;;3.37;34.67;100381.56;8439160;27;20048;-72
2022/03/12 18:01:29;;;;;;;65.22;22.10;;;;;;;3.33;34.57;100385.75;8451608;28;20063;-73
2022/03/12 18:05:30;;;;;;;56.35;20.42;;;;;;;3.26;34.46;100390.38;8442586;28;20094;-74
2022/03/12 18:09:34;;;;;;;60.00;21.05;;;;;;;3.17;34.56;100386.41;8431825;28;20048;-72
2022/03/12 18:13:36;;;;;;;51.60;19.50;;;;;;;3.08;34.62;100374.41;8491269;27;20101;-72
2022/03/12 18:17:38;;;;;;;47.20;18.73;;;;;;;3.03;34.57;100368.94;8444740;27;20142;-73
2022/03/12 18:21:38;;;;;;;48.15;18.15;;;;;;;2.97;34.51;100371.50;8457701;28;20068;-72
2022/03/12 18:25:41;;;;;;;41.70;17.58;;;;;;;2.89;34.48;100369.16;8409766;28;1427036;-72
2022/03/12 18:29:42;;;;;;;45.22;17.52;;;;;;;2.84;34.53;100361.03;8452580;28;20052;-72